Time;durP1;ratioP1;P1;durP2;ratioP2;P2;SDS_P1;SDS_P2;PMS_P1;PMS_P2;Temp;Humidity;BMP_temperature;BMP_pressure;BME280_temperature;BME280_humidity;BME280_pressure;Samples;Min_cycle;Max_cycle;Signal;HPM_P1;HPM_P2
2022/12/24 00:00:07;;;;;;;75.95;55.42;;;12.30;1.00;;;;;;5032555;28;20392;-62
2022/12/24 00:02:33;;;;;;;76.43;57.22;;;12.30;1.00;;;;;;5031963;28;20022;-61
2022/12/24 00:04:59;;;;;;;79.13;56.47;;;12.30;1.00;;;;;;5031933;28;20030;-61
2022/12/24 00:07:25;;;;;;;71.60;54.30;;;12.30;1.00;;;;;;5031833;28;20056;-61
2022/12/24 00:09:50;;;;;;;72.65;53.05;;;12.30;1.00;;;;;;5031946;28;20037;-61
2022/12/24 00:12:16;;;;;;;75.38;54.17;;;12.30;1.00;;;;;;5029940;28;20030;-61
2022/12/24 00:14:41;;;;;;;71.75;53.47;;;12.30;1.00;;;;;;5031678;28;20044;-61
2022/12/24 00:17:07;;;;;;;75.63;53.60;;;12.20;1.00;;;;;;5032098;28;20032;-61
2022/12/24 00:19:33;;;;;;;78.32;55.42;;;12.10;1.00;;;;;;5034756;28;20033;-60
2022/12/24 00:21:58;;;;;;;76.15;55.15;;;12.20;1.00;;;;;;5032883;28;20120;-61
2022/12/24 00:24:24;;;;;;;74.95;54.08;;;12.20;1.00;;;;;;5035869;28;20079;-61
2022/12/24 00:26:50;;;;;;;77.60;55.42;;;12.10;1.00;;;;;;5035492;28;20480;-61
2022/12/24 00:29:21;;;;;;;76.43;54.58;;;12.20;1.00;;;;;;5035082;28;20021;-62
2022/12/24 00:31:47;;;;;;;76.20;55.45;;;12.30;1.00;;;;;;5035080;28;20174;-61
2022/12/24 00:34:13;;;;;;;74.25;52.05;;;12.30;1.00;;;;;;5035241;28;20037;-61
2022/12/24 00:36:38;;;;;;;77.63;55.45;;;12.30;1.00;;;;;;5035368;28;20049;-61
2022/12/24 00:39:04;;;;;;;81.05;56.05;;;12.30;1.00;;;;;;5033985;28;20154;-61
2022/12/24 00:41:29;;;;;;;75.43;54.40;;;12.30;1.00;;;;;;5035535;28;20371;-62
2022/12/24 00:43:58;;;;;;;80.97;55.42;;;12.20;1.00;;;;;;5035197;28;20030;-61
2022/12/24 00:46:40;;;;;;;75.88;53.05;;;12.20;1.00;;;;;;5034462;28;20040;-61
2022/12/24 00:49:07;;;;;;;75.38;53.75;;;12.20;1.00;;;;;;5035029;28;20029;-62
2022/12/24 00:51:34;;;;;;;75.35;53.53;;;12.30;1.00;;;;;;5034811;28;20025;-62
2022/12/24 00:54:00;;;;;;;77.53;56.22;;;12.30;1.00;;;;;;5035119;28;20033;-62
2022/12/24 00:56:26;;;;;;;78.07;55.40;;;12.30;1.00;;;;;;5034773;28;20497;-62
2022/12/24 00:58:52;;;;;;;84.63;56.78;;;12.30;1.00;;;;;;5034827;28;20422;-62
2022/12/24 01:01:18;;;;;;;80.15;58.05;;;12.30;1.00;;;;;;5035036;28;20375;-62
2022/12/24 01:03:44;;;;;;;75.07;55.92;;;12.20;1.00;;;;;;5034110;28;20060;-62
2022/12/24 01:06:27;;;;;;;77.32;54.63;;;12.30;1.00;;;;;;5034767;28;20048;-62
2022/12/24 01:08:53;;;;;;;72.88;53.75;;;12.30;1.00;;;;;;5021099;28;20035;-62
2022/12/24 01:11:19;;;;;;;79.30;57.30;;;12.30;1.00;;;;;;5034863;28;20410;-62
2022/12/24 01:13:44;;;;;;;78.38;54.63;;;12.20;1.00;;;;;;5031102;28;20021;-62
2022/12/24 01:16:16;;;;;;;76.85;56.45;;;12.10;1.00;;;;;;5031469;28;20029;-62
2022/12/24 01:18:42;;;;;;;77.05;56.72;;;12.20;1.00;;;;;;5034631;28;20036;-62
2022/12/24 01:21:07;;;;;;;79.55;57.22;;;12.30;1.00;;;;;;5034191;28;20049;-62
2022/12/24 01:23:33;;;;;;;77.45;56.67;;;12.30;1.00;;;;;;5034447;28;20033;-62
2022/12/24 01:26:00;;;;;;;75.30;55.75;;;12.20;1.00;;;;;;5034061;28;20022;-62
2022/12/24 01:28:26;;;;;;;83.88;57.17;;;12.30;1.00;;;;;;5032592;28;20112;-62
2022/12/24 01:30:52;;;;;;;82.30;58.00;;;12.30;1.00;;;;;;5034170;28;20583;-62
2022/12/24 01:33:17;;;;;;;78.82;54.35;;;12.20;1.00;;;;;;5033086;28;20025;-62
2022/12/24 01:35:43;;;;;;;82.15;57.08;;;12.10;1.00;;;;;;5032937;28;20407;-62
2022/12/24 01:38:10;;;;;;;77.50;57.95;;;12.20;1.00;;;;;;5034011;28;20025;-62
2022/12/24 01:43:22;;;;;;;82.57;57.72;;;11.90;1.00;;;;;;5033190;28;20140;-62
2022/12/24 01:45:52;;;;;;;82.40;56.85;;;12.10;1.00;;;;;;5033803;28;20030;-62
2022/12/24 01:48:29;;;;;;;80.82;59.67;;;12.10;1.00;;;;;;5034091;28;20108;-62
2022/12/24 01:51:03;;;;;;;81.50;56.67;;;12.00;1.00;;;;;;5034017;28;20026;-62
2022/12/24 01:53:30;;;;;;;81.03;55.20;;;12.10;1.00;;;;;;5033750;28;20403;-62
2022/12/24 01:55:57;;;;;;;72.47;52.75;;;12.20;1.00;;;;;;5033822;28;20103;-62
2022/12/24 01:58:25;;;;;;;78.70;55.67;;;12.30;1.00;;;;;;5033947;28;20017;-62
2022/12/24 02:00:51;;;;;;;80.93;56.78;;;12.30;1.00;;;;;;5033835;28;20021;-62
2022/12/24 02:03:18;;;;;;;83.18;57.65;;;12.30;1.00;;;;;;5033882;28;20028;-62
2022/12/24 02:12:31;;;;;;;80.30;54.72;;;12.30;1.00;;;;;;5017807;28;20028;-62
2022/12/24 02:14:58;;;;;;;82.32;57.08;;;12.30;1.00;;;;;;5021377;28;20121;-62
2022/12/24 02:17:41;;;;;;;78.30;55.33;;;12.30;1.00;;;;;;5030703;28;20029;-62
2022/12/24 02:20:25;;;;;;;78.50;53.63;;;12.30;1.00;;;;;;5032619;28;20049;-62
2022/12/24 02:23:08;;;;;;;72.60;52.83;;;12.30;1.00;;;;;;5030926;28;20037;-62
2022/12/24 02:25:51;;;;;;;77.10;55.05;;;12.20;1.00;;;;;;5037438;28;20025;-62
2022/12/24 02:28:38;;;;;;;75.03;53.33;;;12.30;1.00;;;;;;5049058;28;20094;-62
2022/12/24 02:31:24;;;;;;;77.88;55.33;;;12.30;1.00;;;;;;5033956;28;20029;-62
2022/12/24 02:34:03;;;;;;;73.50;52.03;;;12.30;1.00;;;;;;5018825;28;20104;-62
2022/12/24 02:36:39;;;;;;;77.35;54.38;;;12.30;1.00;;;;;;5032934;28;20112;-62
2022/12/24 02:39:10;;;;;;;77.10;54.47;;;12.30;1.00;;;;;;5032590;28;20025;-62
2022/12/24 02:44:30;;;;;;;75.80;54.63;;;12.20;1.00;;;;;;5022191;28;20091;-62
2022/12/24 02:46:58;;;;;;;80.57;55.35;;;12.30;1.00;;;;;;5032525;28;20029;-62
2022/12/24 02:49:25;;;;;;;73.35;53.13;;;12.30;1.00;;;;;;5032985;28;20116;-62
2022/12/24 02:51:51;;;;;;;79.85;55.47;;;12.30;1.00;;;;;;5033061;28;20025;-62
2022/12/24 02:54:17;;;;;;;76.95;53.15;;;12.20;1.00;;;;;;5032714;28;20080;-62
2022/12/24 02:57:05;;;;;;;76.22;54.70;;;12.10;1.00;;;;;;5032583;28;20045;-62
2022/12/24 02:59:54;;;;;;;75.47;54.78;;;12.20;1.00;;;;;;5019858;28;20022;-63
2022/12/24 03:02:45;;;;;;;72.88;53.55;;;12.20;1.00;;;;;;5032646;28;20455;-62
2022/12/24 03:05:23;;;;;;;74.38;53.67;;;12.20;1.00;;;;;;5032626;28;20112;-62
2022/12/24 03:08:26;;;;;;;75.40;52.45;;;12.20;1.00;;;;;;5032521;28;20106;-62
2022/12/24 03:11:07;;;;;;;75.63;53.00;;;12.10;1.00;;;;;;5031268;28;20129;-63
2022/12/24 03:13:33;;;;;;;72.53;52.22;;;12.20;1.00;;;;;;5032064;28;20029;-62
2022/12/24 03:16:02;;;;;;;77.75;52.65;;;12.20;1.00;;;;;;5030923;28;20040;-62
2022/12/24 03:18:29;;;;;;;76.68;53.83;;;12.30;1.00;;;;;;5032560;28;20021;-62
2022/12/24 03:21:17;;;;;;;75.07;53.80;;;12.20;1.00;;;;;;5026008;28;20137;-62
2022/12/24 03:23:43;;;;;;;76.70;53.83;;;12.20;1.00;;;;;;5032493;28;20486;-63
2022/12/24 03:26:11;;;;;;;82.53;54.50;;;12.20;1.00;;;;;;5031288;28;20037;-62
2022/12/24 03:28:39;;;;;;;79.13;56.03;;;12.10;1.00;;;;;;5032432;28;20033;-62
2022/12/24 03:31:06;;;;;;;79.90;54.00;;;12.20;1.00;;;;;;5031845;28;20029;-62
2022/12/24 03:33:33;;;;;;;79.47;53.58;;;12.20;1.00;;;;;;5015495;28;20014;-62
2022/12/24 03:36:02;;;;;;;76.65;54.97;;;12.20;1.00;;;;;;5014513;28;20033;-62
2022/12/24 03:38:28;;;;;;;77.80;53.00;;;12.20;1.00;;;;;;5030944;28;20024;-62
2022/12/24 03:40:54;;;;;;;72.85;53.67;;;12.20;1.00;;;;;;5031664;28;20025;-62
2022/12/24 03:43:19;;;;;;;77.05;55.15;;;12.20;1.00;;;;;;5032109;28;20025;-62
2022/12/24 03:45:45;;;;;;;72.95;51.95;;;12.20;1.00;;;;;;5031937;28;20022;-62
2022/12/24 03:48:11;;;;;;;73.35;53.20;;;12.20;1.00;;;;;;5032101;28;20036;-62
2022/12/24 03:50:36;;;;;;;69.18;52.13;;;12.10;1.00;;;;;;5031528;28;20018;-62
2022/12/24 03:53:02;;;;;;;72.78;52.28;;;12.10;1.00;;;;;;5032203;28;20036;-62
2022/12/24 03:55:28;;;;;;;77.35;54.28;;;12.10;1.00;;;;;;5032196;28;20025;-62
2022/12/24 03:57:53;;;;;;;75.15;53.22;;;12.00;1.00;;;;;;5036227;28;20109;-62
2022/12/24 04:00:19;;;;;;;72.68;51.42;;;12.10;1.00;;;;;;5036089;28;20041;-62
2022/12/24 04:02:45;;;;;;;71.45;51.92;;;12.10;1.00;;;;;;5036375;28;20056;-62
2022/12/24 04:05:28;;;;;;;77.05;52.20;;;12.20;1.00;;;;;;5027947;28;20049;-62
2022/12/24 04:07:54;;;;;;;75.90;54.80;;;12.10;1.00;;;;;;5036110;28;20116;-62
2022/12/24 04:10:21;;;;;;;71.40;52.55;;;12.10;1.00;;;;;;5035582;28;20539;-62
2022/12/24 04:12:46;;;;;;;69.97;52.65;;;12.10;1.00;;;;;;5033260;28;20773;-62
2022/12/24 04:15:12;;;;;;;74.18;51.35;;;12.10;1.00;;;;;;5035271;28;20037;-62
2022/12/24 04:17:38;;;;;;;76.10;52.25;;;12.20;1.00;;;;;;5035018;28;20029;-62
2022/12/24 04:20:04;;;;;;;67.82;50.50;;;12.10;1.00;;;;;;5035393;28;20080;-62
2022/12/24 04:22:39;;;;;;;71.05;50.67;;;12.10;1.00;;;;;;5034929;28;20018;-62
2022/12/24 04:25:05;;;;;;;;;;;12.20;1.00;;;;;;5035325;28;20108;-62
2022/12/24 04:27:30;;;;;;;70.47;50.63;;;12.10;1.00;;;;;;5035584;28;20078;-62
2022/12/24 04:29:56;;;;;;;72.82;54.05;;;12.10;1.00;;;;;;5035439;28;20095;-62
2022/12/24 04:32:22;;;;;;;78.03;54.10;;;12.20;1.00;;;;;;5045992;28;20136;-62
2022/12/24 04:34:47;;;;;;;75.72;51.33;;;12.20;1.00;;;;;;5030135;28;20046;-62
2022/12/24 04:37:13;;;;;;;68.57;50.10;;;12.10;1.00;;;;;;5035338;28;20339;-62
2022/12/24 04:39:39;;;;;;;73.13;52.20;;;12.20;1.00;;;;;;5034560;28;20079;-62
2022/12/24 04:42:04;;;;;;;69.70;50.70;;;12.20;1.00;;;;;;5035878;28;20036;-62
2022/12/24 04:44:30;;;;;;;70.75;51.90;;;12.20;1.00;;;;;;5035618;28;20474;-62
2022/12/24 04:46:56;;;;;;;76.15;51.67;;;12.10;1.00;;;;;;5035095;28;20037;-62
2022/12/24 04:49:21;;;;;;;73.47;52.70;;;12.20;1.00;;;;;;5032085;28;20018;-62
2022/12/24 04:51:47;;;;;;;71.57;52.53;;;12.10;1.00;;;;;;5034845;28;20094;-62
2022/12/24 04:54:12;;;;;;;77.20;53.60;;;12.10;1.00;;;;;;5034316;28;20436;-63
2022/12/24 04:56:38;;;;;;;80.38;54.38;;;12.10;1.00;;;;;;5033733;28;20036;-62
2022/12/24 04:59:03;;;;;;;75.47;52.22;;;12.20;1.00;;;;;;5034859;28;20038;-62
2022/12/24 05:01:31;;;;;;;75.35;53.42;;;12.20;1.00;;;;;;5034945;28;20483;-62
2022/12/24 05:03:57;;;;;;;74.00;53.67;;;12.20;1.00;;;;;;5029895;28;20124;-62
2022/12/24 05:06:26;;;;;;;76.30;55.17;;;12.20;1.00;;;;;;5034089;28;20096;-62
2022/12/24 05:08:56;;;;;;;75.45;53.08;;;12.10;1.00;;;;;;5034189;28;20025;-62
2022/12/24 05:11:22;;;;;;;74.60;54.92;;;12.10;1.00;;;;;;5035079;28;20383;-62
2022/12/24 05:13:48;;;;;;;73.55;53.80;;;12.10;1.00;;;;;;5033967;28;20030;-62
2022/12/24 05:16:15;;;;;;;80.57;53.78;;;12.20;1.00;;;;;;5034517;28;20044;-62
2022/12/24 05:18:41;;;;;;;74.65;52.53;;;12.20;1.00;;;;;;5034117;28;20112;-62
2022/12/24 05:21:35;;;;;;;72.35;52.72;;;12.20;1.00;;;;;;5031131;28;20436;-62
2022/12/24 05:26:48;;;;;;;72.82;53.08;;;12.20;1.00;;;;;;5031896;28;20071;-62
2022/12/24 05:29:14;;;;;;;76.70;53.03;;;12.10;1.00;;;;;;5032513;28;20083;-62
2022/12/24 05:31:42;;;;;;;78.22;54.17;;;12.10;1.00;;;;;;5034161;28;20033;-62
2022/12/24 05:34:09;;;;;;;78.18;54.25;;;12.10;1.00;;;;;;5028428;28;20057;-62
2022/12/24 05:36:34;;;;;;;73.75;52.70;;;12.20;1.00;;;;;;5022367;28;20021;-62
2022/12/24 05:39:00;;;;;;;75.68;54.22;;;12.20;1.00;;;;;;5031588;28;20029;-62
2022/12/24 05:41:26;;;;;;;75.45;53.35;;;12.20;1.00;;;;;;5034482;28;20030;-62
2022/12/24 05:43:52;;;;;;;76.80;54.10;;;12.20;1.00;;;;;;5034101;28;20053;-62
2022/12/24 05:46:19;;;;;;;74.85;52.80;;;12.20;1.00;;;;;;5034218;28;20075;-62
2022/12/24 05:48:46;;;;;;;75.72;53.75;;;12.20;1.00;;;;;;5033696;28;20022;-62
2022/12/24 05:51:13;;;;;;;75.38;53.25;;;12.20;1.00;;;;;;5032620;28;20457;-62
2022/12/24 05:53:39;;;;;;;75.00;54.97;;;12.10;1.00;;;;;;5034083;28;20013;-62
2022/12/24 05:56:07;;;;;;;81.90;55.08;;;12.10;1.00;;;;;;5047585;28;20033;-62
2022/12/24 05:58:34;;;;;;;77.53;54.35;;;12.20;1.00;;;;;;5034267;28;20348;-62
2022/12/24 06:01:04;;;;;;;73.53;54.17;;;12.10;1.00;;;;;;5032698;28;20040;-62
2022/12/24 06:03:30;;;;;;;78.93;55.17;;;12.10;1.00;;;;;;5033049;28;20021;-62
2022/12/24 06:06:05;;;;;;;76.30;54.53;;;12.20;1.00;;;;;;5034181;28;20058;-62
2022/12/24 06:08:32;;;;;;;73.45;54.53;;;12.20;1.00;;;;;;5021691;28;20029;-63
2022/12/24 06:11:00;;;;;;;74.53;52.50;;;12.10;1.00;;;;;;5033770;28;20017;-62
2022/12/24 06:13:26;;;;;;;79.07;54.05;;;12.20;1.00;;;;;;5025501;28;20029;-62
2022/12/24 06:15:57;;;;;;;79.07;54.83;;;12.20;1.00;;;;;;5034042;28;20087;-62
2022/12/24 06:18:23;;;;;;;76.18;53.45;;;12.10;1.00;;;;;;5032962;28;20018;-62
2022/12/24 06:20:56;;;;;;;74.10;52.58;;;12.20;1.00;;;;;;5033337;28;20494;-62
2022/12/24 06:23:22;;;;;;;72.40;53.17;;;12.10;1.00;;;;;;5033749;28;20022;-62
2022/12/24 06:25:48;;;;;;;85.05;56.95;;;12.10;1.00;;;;;;5029518;28;20029;-62
2022/12/24 06:28:14;;;;;;;85.88;56.65;;;12.00;1.00;;;;;;5022220;28;20431;-62
2022/12/24 06:30:40;;;;;;;80.50;55.42;;;12.10;1.00;;;;;;5046394;28;20030;-62
2022/12/24 06:33:06;;;;;;;81.70;57.65;;;11.80;1.00;;;;;;5031978;28;20021;-62
2022/12/24 06:35:32;;;;;;;88.75;59.85;;;12.00;1.00;;;;;;5033250;28;20041;-62
2022/12/24 06:37:58;;;;;;;88.75;58.50;;;12.10;1.00;;;;;;5033249;28;20025;-62
2022/12/24 06:40:27;;;;;;;81.47;58.05;;;12.00;1.00;;;;;;5033235;28;20095;-62
2022/12/24 06:42:52;;;;;;;85.57;59.00;;;12.10;1.00;;;;;;5032575;28;20120;-62
2022/12/24 06:45:21;;;;;;;82.63;56.30;;;12.10;1.00;;;;;;5033294;28;20531;-62
2022/12/24 06:47:46;;;;;;;83.82;55.90;;;12.20;1.00;;;;;;5019346;28;20509;-62
2022/12/24 06:50:12;;;;;;;81.30;56.70;;;12.10;1.00;;;;;;5033121;28;20025;-62
2022/12/24 06:52:38;;;;;;;78.63;55.85;;;12.10;1.00;;;;;;5033185;28;20064;-62
2022/12/24 06:55:04;;;;;;;79.35;54.70;;;12.10;1.00;;;;;;5033179;28;20095;-62
2022/12/24 06:57:30;;;;;;;75.75;52.80;;;12.00;1.00;;;;;;5032426;28;20021;-63
2022/12/24 06:59:57;;;;;;;80.30;55.28;;;12.10;1.00;;;;;;5031460;28;20368;-62
2022/12/24 07:02:23;;;;;;;69.38;52.05;;;12.20;1.00;;;;;;5033093;28;20036;-62
2022/12/24 07:04:49;;;;;;;73.50;53.10;;;12.20;1.00;;;;;;5032649;28;20034;-63
2022/12/24 07:07:14;;;;;;;74.13;52.55;;;12.10;1.00;;;;;;5032736;28;20030;-63
2022/12/24 07:09:40;;;;;;;76.50;54.15;;;12.20;1.00;;;;;;5032536;28;20033;-62
2022/12/24 07:12:06;;;;;;;70.80;52.40;;;12.20;1.00;;;;;;5032286;28;20025;-63
2022/12/24 07:14:32;;;;;;;69.85;51.65;;;12.20;1.00;;;;;;5032678;28;20033;-62
2022/12/24 07:16:58;;;;;;;77.15;50.88;;;12.20;1.00;;;;;;5032544;28;20025;-62
2022/12/24 07:19:23;;;;;;;78.53;53.60;;;12.20;1.00;;;;;;5020874;28;20218;-63
2022/12/24 07:21:49;;;;;;;79.07;54.50;;;12.20;1.00;;;;;;5030075;28;20084;-63
2022/12/24 07:24:15;;;;;;;73.90;53.17;;;12.10;1.00;;;;;;5028979;28;20106;-63
2022/12/24 07:26:41;;;;;;;74.93;52.58;;;12.20;1.00;;;;;;5026637;28;20029;-62
2022/12/24 07:29:06;;;;;;;72.30;50.88;;;12.20;1.00;;;;;;5036273;28;20029;-62
2022/12/24 07:31:32;;;;;;;83.05;54.53;;;12.20;1.00;;;;;;5042285;28;20398;-62
2022/12/24 07:33:58;;;;;;;75.63;52.92;;;12.20;1.00;;;;;;5032201;28;20091;-63
2022/12/24 07:36:24;;;;;;;75.43;51.60;;;12.20;1.00;;;;;;5032366;28;20437;-62
2022/12/24 07:38:51;;;;;;;78.47;52.47;;;12.20;1.00;;;;;;5030698;28;20017;-62
2022/12/24 07:41:17;;;;;;;72.88;51.55;;;12.20;1.00;;;;;;5032626;28;20049;-62
2022/12/24 07:43:42;;;;;;;74.65;52.33;;;12.20;1.00;;;;;;5031154;28;20060;-63
2022/12/24 07:46:08;;;;;;;78.40;53.22;;;12.20;1.00;;;;;;5032242;28;20075;-62
2022/12/24 07:48:34;;;;;;;81.50;54.47;;;12.30;1.00;;;;;;5030806;28;20411;-62
2022/12/24 07:51:00;;;;;;;79.15;54.13;;;12.30;1.00;;;;;;5031904;28;20101;-62
2022/12/24 07:53:27;;;;;;;79.50;56.25;;;12.20;1.00;;;;;;5031143;28;20028;-62
2022/12/24 07:55:53;;;;;;;80.57;53.45;;;12.30;1.00;;;;;;5032015;28;20132;-62
2022/12/24 07:58:19;;;;;;;80.82;54.35;;;12.30;1.00;;;;;;5032214;28;20096;-62
2022/12/24 08:00:45;;;;;;;77.45;54.90;;;12.30;1.00;;;;;;5032122;28;20068;-63
2022/12/24 08:03:18;;;;;;;79.65;54.10;;;12.10;1.00;;;;;;5021887;28;20432;-63
2022/12/24 08:05:45;;;;;;;84.88;56.05;;;12.20;1.00;;;;;;5032130;28;20034;-62
2022/12/24 08:08:11;;;;;;;82.65;55.25;;;12.20;1.00;;;;;;5032101;28;20471;-62
2022/12/24 08:10:40;;;;;;;86.13;54.75;;;12.20;1.00;;;;;;5032113;28;20076;-63
2022/12/24 08:13:06;;;;;;;81.13;54.90;;;12.20;1.00;;;;;;5031511;28;20117;-63
2022/12/24 08:15:31;;;;;;;79.90;54.03;;;12.30;1.00;;;;;;5030724;28;20112;-62
2022/12/24 08:18:03;;;;;;;78.65;53.60;;;12.30;1.00;;;;;;5031780;28;20037;-62
2022/12/24 08:20:29;;;;;;;80.32;55.25;;;12.30;1.00;;;;;;5031612;28;20041;-63
2022/12/24 08:22:54;;;;;;;83.93;55.15;;;12.30;1.00;;;;;;5030067;28;20466;-63
2022/12/24 08:25:20;;;;;;;83.68;55.78;;;12.20;1.00;;;;;;5031800;28;20125;-63
2022/12/24 08:27:46;;;;;;;81.70;53.53;;;12.30;1.00;;;;;;5031925;28;20080;-63
2022/12/24 08:30:12;;;;;;;82.80;53.63;;;12.30;1.00;;;;;;5044957;28;20013;-63
2022/12/24 08:32:39;;;;;;;82.63;55.38;;;12.30;1.00;;;;;;5032635;28;20109;-62
2022/12/24 08:35:05;;;;;;;82.85;58.33;;;12.30;1.00;;;;;;5030348;28;20049;-62
2022/12/24 08:37:31;;;;;;;84.03;56.90;;;12.30;1.00;;;;;;5030024;28;20029;-62
2022/12/24 08:40:12;;;;;;;83.43;58.22;;;12.40;1.00;;;;;;5031615;28;20044;-63
2022/12/24 08:42:37;;;;;;;85.90;59.42;;;12.20;1.00;;;;;;5031736;28;20108;-63
2022/12/24 08:45:03;;;;;;;96.75;59.47;;;12.10;1.00;;;;;;5035217;28;20057;-63
2022/12/24 08:47:29;;;;;;;97.72;60.03;;;12.20;1.00;;;;;;5034066;28;20336;-63
2022/12/24 08:49:54;;;;;;;96.97;60.75;;;12.30;1.00;;;;;;5033953;28;20489;-63
2022/12/24 08:52:20;;;;;;;88.38;59.40;;;12.30;1.00;;;;;;5029343;28;20403;-63
2022/12/24 08:54:52;;;;;;;89.88;60.70;;;12.20;1.00;;;;;;5034535;28;20120;-63
2022/12/24 08:57:19;;;;;;;90.53;58.50;;;12.30;1.00;;;;;;5035327;28;20025;-62
2022/12/24 08:59:44;;;;;;;84.30;58.92;;;12.30;1.00;;;;;;5035036;28;20112;-63
2022/12/24 09:02:10;;;;;;;90.38;59.38;;;12.30;1.00;;;;;;5035314;28;20060;-63
2022/12/24 09:04:39;;;;;;;88.68;57.90;;;12.30;1.00;;;;;;5034932;28;20487;-63
2022/12/24 09:07:05;;;;;;;91.50;60.78;;;12.30;1.00;;;;;;5029469;28;20391;-63
2022/12/24 09:09:31;;;;;;;102.70;61.22;;;12.20;1.00;;;;;;5029780;28;20025;-63
2022/12/24 09:11:56;;;;;;;93.57;61.10;;;12.30;1.00;;;;;;5034913;28;20027;-63
2022/12/24 09:14:22;;;;;;;89.03;59.67;;;12.40;1.00;;;;;;5032750;28;20131;-63
2022/12/24 09:16:48;;;;;;;88.18;58.15;;;12.40;1.00;;;;;;5034999;28;20035;-63
2022/12/24 09:19:13;;;;;;;95.25;60.63;;;12.40;1.00;;;;;;5033809;28;20025;-63
2022/12/24 09:21:39;;;;;;;89.15;58.10;;;12.50;1.00;;;;;;5032600;28;20052;-63
2022/12/24 09:24:05;;;;;;;89.07;57.65;;;12.40;1.00;;;;;;5034279;28;20018;-63
2022/12/24 09:26:30;;;;;;;90.65;59.08;;;12.40;1.00;;;;;;5034989;28;20112;-62
2022/12/24 09:28:58;;;;;;;84.93;55.97;;;12.40;1.00;;;;;;5034250;28;20049;-63
2022/12/24 09:31:24;;;;;;;85.07;56.78;;;12.40;1.00;;;;;;5034428;28;20029;-63
2022/12/24 09:33:50;;;;;;;87.57;56.13;;;12.50;1.00;;;;;;5033001;28;20049;-62
2022/12/24 09:36:17;;;;;;;89.68;58.00;;;12.40;1.00;;;;;;5034328;28;20076;-63
2022/12/24 09:38:43;;;;;;;82.15;56.60;;;12.50;1.00;;;;;;5034303;28;20399;-63
2022/12/24 09:41:35;;;;;;;91.57;57.28;;;12.50;1.00;;;;;;5032953;28;20045;-63
2022/12/24 09:44:22;;;;;;;87.07;55.60;;;12.50;1.00;;;;;;5032831;28;20492;-62
2022/12/24 09:46:49;;;;;;;87.50;56.05;;;12.50;1.00;;;;;;5028619;28;20053;-63
2022/12/24 09:49:20;;;;;;;89.40;57.38;;;12.50;1.00;;;;;;5030496;28;20029;-63
2022/12/24 09:51:58;;;;;;;88.85;57.65;;;12.50;1.00;;;;;;5034329;28;20060;-62
2022/12/24 09:54:31;;;;;;;84.07;56.65;;;12.50;1.00;;;;;;5025686;28;20049;-63
2022/12/24 09:57:01;;;;;;;87.80;57.13;;;12.50;1.00;;;;;;5024829;28;20026;-63
2022/12/24 09:59:48;;;;;;;78.78;53.17;;;12.60;1.00;;;;;;5031415;28;20036;-63
2022/12/24 10:02:17;;;;;;;81.28;52.55;;;12.70;1.00;;;;;;5030830;28;20029;-63
2022/12/24 10:04:44;;;;;;;86.13;56.53;;;12.70;1.00;;;;;;5032982;28;20029;-63
2022/12/24 10:07:28;;;;;;;85.72;56.22;;;12.60;1.00;;;;;;5022112;28;20065;-63
2022/12/24 10:09:56;;;;;;;85.50;57.22;;;12.70;1.00;;;;;;5033351;28;20128;-63
2022/12/24 10:12:47;;;;;;;83.65;56.25;;;12.70;1.00;;;;;;5028777;28;20100;-63
2022/12/24 10:15:30;;;;;;;77.07;53.38;;;12.80;1.00;;;;;;5033582;28;20057;-63
2022/12/24 10:18:34;;;;;;;83.15;54.38;;;12.80;1.00;;;;;;5032783;28;20061;-63
2022/12/24 10:21:12;;;;;;;79.88;50.58;;;12.70;1.00;;;;;;5031416;28;20047;-63
2022/12/24 10:23:46;;;;;;;74.10;49.13;;;12.70;1.00;;;;;;5033035;28;20459;-66
2022/12/24 10:26:34;;;;;;;78.70;51.85;;;12.60;1.00;;;;;;5030088;28;20149;-63
2022/12/24 10:29:12;;;;;;;74.70;49.05;;;12.40;1.00;;;;;;5017316;28;20022;-61
2022/12/24 10:32:06;;;;;;;80.05;53.00;;;12.30;1.00;;;;;;5027122;28;20033;-61
2022/12/24 10:34:41;;;;;;;83.97;53.13;;;12.70;1.00;;;;;;5023048;28;20445;-61
2022/12/24 10:37:22;;;;;;;84.40;51.97;;;12.70;1.00;;;;;;5033313;28;20018;-61
2022/12/24 10:39:48;;;;;;;87.63;54.38;;;12.70;1.00;;;;;;5020925;28;20022;-61
2022/12/24 10:42:18;;;;;;;90.95;55.28;;;12.80;1.00;;;;;;5033320;28;20160;-61
2022/12/24 10:44:51;;;;;;;86.07;53.40;;;12.70;1.00;;;;;;5020945;28;20060;-62
2022/12/24 10:47:19;;;;;;;78.93;52.25;;;12.80;1.00;;;;;;5032843;28;20033;-67
2022/12/24 10:50:00;;;;;;;79.43;49.15;;;12.60;1.00;;;;;;5021117;28;20109;-62
2022/12/24 10:52:31;;;;;;;82.00;53.13;;;12.50;1.00;;;;;;5030352;28;20024;-61
2022/12/24 10:55:10;;;;;;;79.60;49.10;;;12.40;1.00;;;;;;5032498;28;20030;-61
2022/12/24 10:57:37;;;;;;;76.85;48.65;;;12.40;1.00;;;;;;5032744;28;20072;-62
2022/12/24 11:00:05;;;;;;;79.45;52.60;;;12.50;1.00;;;;;;5021849;28;20021;-61
2022/12/24 11:02:36;;;;;;;82.32;54.05;;;12.60;1.00;;;;;;5030587;28;20356;-61
2022/12/24 11:05:26;;;;;;;91.32;54.13;;;12.50;1.00;;;;;;5022897;28;20022;-62
2022/12/24 11:08:04;;;;;;;78.72;47.42;;;12.40;1.00;;;;;;5030999;28;20369;-63
2022/12/24 11:10:32;;;;;;;82.07;51.40;;;12.50;1.00;;;;;;5032447;28;20097;-63
2022/12/24 11:12:57;;;;;;;84.53;50.53;;;12.50;1.00;;;;;;5022867;28;20021;-62
2022/12/24 11:15:31;;;;;;;84.30;52.45;;;12.50;1.00;;;;;;5032188;28;20033;-62
2022/12/24 11:18:11;;;;;;;82.70;52.88;;;12.60;1.00;;;;;;5022248;28;20025;-61
2022/12/24 11:20:37;;;;;;;80.32;51.75;;;12.80;1.00;;;;;;5029250;28;20053;-61
2022/12/24 11:23:03;;;;;;;81.68;52.25;;;12.80;1.00;;;;;;5032634;28;20120;-62
2022/12/24 11:25:40;;;;;;;85.55;53.72;;;12.70;1.00;;;;;;5028943;28;20128;-62
2022/12/24 11:28:25;;;;;;;81.13;50.88;;;12.70;1.00;;;;;;5025567;28;20032;-62
2022/12/24 11:31:02;;;;;;;79.70;53.17;;;12.70;1.00;;;;;;5020297;28;20052;-62
2022/12/24 11:33:29;;;;;;;87.32;54.65;;;12.70;1.00;;;;;;5030813;28;20668;-62
2022/12/24 11:36:12;;;;;;;86.43;57.20;;;12.80;1.00;;;;;;5030260;28;20041;-61
2022/12/24 11:38:38;;;;;;;79.68;52.90;;;12.80;1.00;;;;;;5029823;28;20037;-61
2022/12/24 11:41:10;;;;;;;84.22;54.85;;;12.90;1.00;;;;;;5031618;28;20021;-62
2022/12/24 11:43:57;;;;;;;85.97;52.08;;;13.00;1.00;;;;;;5031843;28;20095;-62
2022/12/24 11:46:40;;;;;;;80.00;54.17;;;12.90;1.00;;;;;;5032062;28;20103;-62
2022/12/24 11:49:23;;;;;;;76.15;52.08;;;12.90;1.00;;;;;;5021765;28;20038;-62
2022/12/24 11:52:12;;;;;;;81.10;52.40;;;12.90;1.00;;;;;;5030516;28;20021;-62
2022/12/24 11:55:03;;;;;;;78.78;51.65;;;13.00;1.00;;;;;;5025722;28;20037;-62
2022/12/24 11:57:56;;;;;;;78.03;50.78;;;13.00;1.00;;;;;;5021187;28;20029;-62
2022/12/24 12:00:23;;;;;;;81.00;52.78;;;13.00;1.00;;;;;;5029754;28;20026;-62
2022/12/24 12:02:51;;;;;;;76.03;50.60;;;12.80;1.00;;;;;;5031084;28;20112;-62
2022/12/24 12:05:24;;;;;;;71.50;48.40;;;12.80;1.00;;;;;;5020151;28;20474;-61
2022/12/24 12:07:53;;;;;;;73.63;52.30;;;12.90;1.00;;;;;;5030668;28;20033;-62
2022/12/24 12:10:24;;;;;;;77.03;49.13;;;12.80;1.00;;;;;;5027028;28;20030;-62
2022/12/24 12:13:04;;;;;;;78.80;53.17;;;13.00;1.00;;;;;;5032047;28;20017;-62
2022/12/24 12:15:40;;;;;;;78.82;54.33;;;13.00;1.00;;;;;;5030327;28;20398;-62
2022/12/24 12:21:48;;;;;;;80.60;52.17;;;12.70;1.00;;;;;;5015330;28;20053;-56
2022/12/24 12:24:28;;;;;;;80.18;52.92;;;12.70;1.00;;;;;;5035063;28;20140;-56
2022/12/24 12:27:24;;;;;;;87.82;57.60;;;12.80;1.00;;;;;;5033447;28;20037;-56
2022/12/24 12:30:01;;;;;;;81.40;53.83;;;12.80;1.00;;;;;;5026186;28;20038;-57
2022/12/24 12:32:50;;;;;;;81.00;55.30;;;13.00;1.00;;;;;;5022628;28;20025;-56
2022/12/24 12:35:16;;;;;;;78.80;55.17;;;13.00;1.00;;;;;;5022750;28;20041;-57
2022/12/24 12:37:53;;;;;;;87.78;58.42;;;12.90;1.00;;;;;;5035700;28;20033;-55
2022/12/24 12:40:18;;;;;;;85.07;57.03;;;12.80;1.00;;;;;;5033253;28;20021;-58
2022/12/24 12:43:11;;;;;;;85.35;56.72;;;12.90;1.00;;;;;;5035445;28;20032;-54
2022/12/24 12:46:21;;;;;;;84.18;56.40;;;12.90;1.00;;;;;;5034800;28;20022;-57
2022/12/24 12:49:07;;;;;;;86.82;59.28;;;12.90;1.00;;;;;;5025495;28;20424;-56
2022/12/24 12:51:52;;;;;;;81.78;54.08;;;12.90;1.00;;;;;;5025203;28;20036;-56
2022/12/24 12:54:48;;;;;;;80.72;54.63;;;13.00;1.00;;;;;;5033709;28;20025;-57
2022/12/24 13:04:26;;;;;;;93.88;59.53;;;13.00;1.00;;;;;;5026004;28;20041;-56
2022/12/24 13:07:02;;;;;;;90.50;61.70;;;12.70;1.00;;;;;;5024064;28;20029;-53
2022/12/24 13:09:43;;;;;;;99.95;62.88;;;12.70;1.00;;;;;;5034478;28;20447;-55
2022/12/24 13:12:22;;;;;;;92.55;61.03;;;12.80;1.00;;;;;;5026408;28;20050;-56
2022/12/24 13:15:04;;;;;;;91.70;61.78;;;12.90;1.00;;;;;;5030798;28;20045;-56
2022/12/24 13:17:57;;;;;;;89.70;61.60;;;12.80;1.00;;;;;;5035088;28;20402;-55
2022/12/24 13:20:30;;;;;;;95.82;62.20;;;12.80;1.00;;;;;;5027261;28;20026;-57